Time;durP1;ratioP1;P1;durP2;ratioP2;P2;SDS_P1;SDS_P2;PMS_P1;PMS_P2;Temp;Humidity;BMP_temperature;BMP_pressure;BME280_temperature;BME280_humidity;BME280_pressure;Samples;Min_cycle;Max_cycle;Signal;HPM_P1;HPM_P2
2022/09/16 00:01:31;;;;;;;4.40;0.95;;;15.40;99.90;;;;;;4068190;28;20498;-68
2022/09/16 00:03:33;;;;;;;5.15;1.70;;;15.40;99.90;;;;;;4068193;28;20401;-68
2022/09/16 00:05:39;;;;;;;3.85;1.00;;;15.50;99.90;;;;;;4068798;28;20035;-68
2022/09/16 00:07:40;;;;;;;3.95;1.08;;;15.40;99.90;;;;;;4066451;29;20122;-68
2022/09/16 00:09:40;;;;;;;3.88;1.17;;;15.40;99.90;;;;;;4061952;28;20441;-68
2022/09/16 00:11:41;;;;;;;4.97;1.05;;;15.40;99.90;;;;;;4063673;28;20518;-68
2022/09/16 00:13:41;;;;;;;3.20;1.23;;;15.40;99.90;;;;;;4068916;28;20054;-68
2022/09/16 00:15:49;;;;;;;2.40;1.05;;;15.40;99.90;;;;;;4066155;29;20032;-68
2022/09/16 00:17:50;;;;;;;3.47;1.15;;;15.30;99.90;;;;;;4067075;28;20032;-68
2022/09/16 00:19:51;;;;;;;2.40;1.10;;;15.30;99.90;;;;;;4066562;28;20118;-68
2022/09/16 00:21:51;;;;;;;3.75;0.98;;;15.30;99.90;;;;;;4060629;28;20722;-67
2022/09/16 00:23:52;;;;;;;2.10;0.90;;;15.20;99.90;;;;;;4065399;28;20449;-68
2022/09/16 00:25:54;;;;;;;9.93;1.40;;;15.20;99.90;;;;;;4070755;28;20048;-68
2022/09/16 00:27:54;;;;;;;7.22;1.35;;;15.20;99.90;;;;;;4068488;28;20032;-68
2022/09/16 00:29:55;;;;;;;3.78;1.10;;;15.10;99.90;;;;;;4064779;29;20059;-68
2022/09/16 00:31:56;;;;;;;2.25;1.02;;;15.10;99.90;;;;;;4065779;28;20035;-68
2022/09/16 00:33:56;;;;;;;3.53;1.10;;;15.00;99.90;;;;;;4065657;29;20040;-68
2022/09/16 00:36:08;;;;;;;2.70;1.05;;;15.10;99.90;;;;;;4063795;28;20578;-68
2022/09/16 00:38:09;;;;;;;2.65;0.90;;;15.00;99.90;;;;;;4069399;28;20058;-67
2022/09/16 00:40:10;;;;;;;2.70;0.98;;;15.00;99.90;;;;;;4066032;28;20480;-69
2022/09/16 00:42:11;;;;;;;4.97;1.10;;;15.00;99.90;;;;;;4064669;29;20043;-67
2022/09/16 00:44:49;;;;;;;1.30;0.70;;;15.00;99.90;;;;;;4062690;29;20127;-67
2022/09/16 00:46:49;;;;;;;4.28;0.90;;;14.90;99.90;;;;;;4063772;28;20131;-68
2022/09/16 00:48:50;;;;;;;2.40;0.82;;;15.00;99.90;;;;;;4066730;29;20028;-67
2022/09/16 00:50:56;;;;;;;2.38;0.93;;;15.00;99.90;;;;;;4067137;28;20583;-68
2022/09/16 00:52:58;;;;;;;4.10;1.02;;;15.00;99.90;;;;;;4062842;28;20051;-68
2022/09/16 00:55:00;;;;;;;;;;;14.90;99.90;;;;;;4065072;29;20043;-68
2022/09/16 00:57:03;;;;;;;2.22;1.20;;;14.90;99.90;;;;;;4065371;28;20306;-68
2022/09/16 00:59:14;;;;;;;4.40;1.23;;;14.90;99.90;;;;;;4066210;29;20424;-68
2022/09/16 01:01:14;;;;;;;4.47;1.13;;;14.80;99.90;;;;;;4066941;28;20032;-67
2022/09/16 01:03:15;;;;;;;4.50;1.10;;;14.80;99.90;;;;;;4070077;28;20376;-67
2022/09/16 01:05:21;;;;;;;3.90;1.10;;;14.80;99.90;;;;;;4076186;28;20032;-68
2022/09/16 01:07:38;;;;;;;1.52;0.60;;;14.70;99.90;;;;;;4074242;28;20466;-68
2022/09/16 01:09:39;;;;;;;3.15;0.75;;;14.70;99.90;;;;;;4071118;28;20487;-67
2022/09/16 01:11:40;;;;;;;3.35;1.33;;;14.80;99.90;;;;;;4068777;28;20028;-68
2022/09/16 01:13:42;;;;;;;1.35;0.77;;;14.80;99.90;;;;;;4073976;28;20070;-67
2022/09/16 01:16:16;;;;;;;5.22;1.30;;;14.80;99.90;;;;;;4068742;28;20040;-67
2022/09/16 01:18:52;;;;;;;3.80;1.05;;;14.80;99.90;;;;;;4066313;29;20455;-68
2022/09/16 01:20:55;;;;;;;2.90;1.05;;;14.80;99.90;;;;;;4067549;28;20024;-68
2022/09/16 01:23:33;;;;;;;1.20;0.70;;;14.80;99.90;;;;;;4072142;28;20040;-68
2022/09/16 01:26:01;;;;;;;3.00;0.85;;;14.80;99.90;;;;;;4058764;28;20052;-68
2022/09/16 01:28:33;;;;;;;2.55;0.82;;;14.80;99.90;;;;;;4067936;28;20052;-68
2022/09/16 01:30:48;;;;;;;2.40;0.82;;;14.80;99.90;;;;;;4064516;29;20036;-68
2022/09/16 01:32:51;;;;;;;2.47;0.85;;;14.90;99.90;;;;;;4066417;29;20032;-68
2022/09/16 01:34:56;;;;;;;4.78;1.00;;;14.90;99.90;;;;;;4070285;29;20036;-68
2022/09/16 01:37:07;;;;;;;5.75;1.45;;;14.90;99.90;;;;;;4068188;28;20038;-67
2022/09/16 01:39:31;;;;;;;4.22;1.00;;;14.80;99.90;;;;;;4062645;28;20037;-68
2022/09/16 01:41:47;;;;;;;3.80;1.08;;;14.80;99.90;;;;;;4069930;28;20031;-68
2022/09/16 01:43:59;;;;;;;3.05;1.17;;;14.80;99.90;;;;;;4072294;28;20087;-68
2022/09/16 01:46:15;;;;;;;3.08;0.88;;;14.80;99.90;;;;;;4062706;28;20138;-68
2022/09/16 01:48:34;;;;;;;4.63;1.23;;;14.80;99.90;;;;;;4065899;28;20063;-68
2022/09/16 01:51:13;;;;;;;1.20;0.52;;;14.80;99.90;;;;;;4066251;28;20565;-68
2022/09/16 01:53:26;;;;;;;4.30;1.20;;;14.80;99.90;;;;;;4051941;28;20072;-67
2022/09/16 01:55:52;;;;;;;3.65;1.20;;;14.80;99.90;;;;;;4064952;28;20151;-68
2022/09/16 01:58:02;;;;;;;2.63;1.35;;;14.80;99.90;;;;;;4066151;29;20048;-68
2022/09/16 02:00:06;;;;;;;5.30;1.15;;;14.80;99.90;;;;;;4070882;28;20037;-70
2022/09/16 02:02:34;;;;;;;3.08;1.40;;;14.80;99.90;;;;;;4063733;29;20044;-68
2022/09/16 02:04:42;;;;;;;1.90;0.90;;;14.80;99.90;;;;;;4069832;28;20540;-68
2022/09/16 02:06:45;;;;;;;1.75;0.70;;;14.90;99.90;;;;;;4068218;28;20040;-68
2022/09/16 02:08:52;;;;;;;1.98;0.90;;;14.90;99.90;;;;;;4064690;29;20028;-67
2022/09/16 02:10:59;;;;;;;1.65;0.70;;;15.00;99.90;;;;;;4065905;28;20032;-68
2022/09/16 02:13:29;;;;;;;2.72;1.00;;;15.00;99.90;;;;;;4068094;28;20059;-68
2022/09/16 02:15:32;;;;;;;3.28;0.93;;;15.00;99.90;;;;;;4065085;28;20040;-68
2022/09/16 02:17:37;;;;;;;4.20;1.42;;;15.00;99.90;;;;;;4068124;28;20035;-68
2022/09/16 02:19:41;;;;;;;1.60;0.80;;;14.90;99.90;;;;;;4067587;28;20064;-68
2022/09/16 02:21:42;;;;;;;1.48;0.65;;;14.90;99.90;;;;;;4066885;28;20529;-67
2022/09/16 02:23:49;;;;;;;2.92;1.13;;;14.90;99.90;;;;;;4066890;29;20043;-68
2022/09/16 02:25:52;;;;;;;4.65;1.20;;;14.90;99.90;;;;;;4068838;28;20084;-68
2022/09/16 02:27:53;;;;;;;4.88;1.17;;;14.90;99.90;;;;;;4069772;28;20047;-68
2022/09/16 02:30:15;;;;;;;2.38;0.98;;;14.90;99.90;;;;;;4070240;28;20453;-68
2022/09/16 02:32:19;;;;;;;2.00;0.90;;;15.00;99.90;;;;;;4068800;28;20032;-68
2022/09/16 02:34:26;;;;;;;2.40;0.90;;;15.00;99.90;;;;;;4068057;29;20098;-68
2022/09/16 02:36:28;;;;;;;2.13;1.00;;;15.00;99.90;;;;;;4065989;28;20033;-68
2022/09/16 02:38:40;;;;;;;4.78;1.25;;;15.00;99.90;;;;;;4062120;29;20039;-68
2022/09/16 02:40:47;;;;;;;2.90;1.10;;;15.00;99.90;;;;;;4069531;28;20353;-66
2022/09/16 02:42:48;;;;;;;2.10;0.98;;;15.00;99.90;;;;;;4062834;29;20040;-68
2022/09/16 02:44:49;;;;;;;1.58;0.90;;;15.00;99.90;;;;;;4066271;29;20384;-68
2022/09/16 02:47:18;;;;;;;1.73;0.90;;;15.00;99.90;;;;;;4070503;28;20039;-68
2022/09/16 02:49:36;;;;;;;3.53;1.10;;;15.00;99.90;;;;;;4061090;28;20501;-68
2022/09/16 02:52:14;;;;;;;4.95;1.40;;;15.00;99.90;;;;;;4060235;29;20095;-68
2022/09/16 02:54:23;;;;;;;3.22;1.33;;;15.00;99.90;;;;;;4072975;28;20035;-67
2022/09/16 02:56:32;;;;;;;2.85;1.13;;;15.00;99.90;;;;;;4067305;29;20040;-68
2022/09/16 02:58:32;;;;;;;5.10;1.42;;;14.90;99.90;;;;;;4065378;29;20024;-68
2022/09/16 03:00:38;;;;;;;3.60;1.10;;;15.00;99.90;;;;;;4063637;29;20532;-68
2022/09/16 03:02:39;;;;;;;3.67;1.33;;;14.90;99.90;;;;;;4068848;28;20483;-68
2022/09/16 03:04:40;;;;;;;6.32;1.30;;;14.90;99.90;;;;;;4068925;28;20040;-68
2022/09/16 03:06:41;;;;;;;3.30;1.42;;;14.90;99.90;;;;;;4064294;28;20071;-67
2022/09/16 03:08:43;;;;;;;4.65;1.30;;;14.90;99.90;;;;;;4068809;28;20145;-68
2022/09/16 03:10:45;;;;;;;5.10;1.65;;;14.90;99.90;;;;;;4066206;28;20086;-67
2022/09/16 03:13:16;;;;;;;3.10;1.40;;;14.80;99.90;;;;;;4068482;28;20046;-68
2022/09/16 03:15:32;;;;;;;3.30;1.33;;;14.80;99.90;;;;;;4068836;28;20099;-68
2022/09/16 03:17:38;;;;;;;5.47;1.55;;;14.80;99.90;;;;;;4067408;28;20123;-68
2022/09/16 03:20:00;;;;;;;4.60;1.55;;;14.80;99.90;;;;;;4070551;28;20039;-68
2022/09/16 03:22:29;;;;;;;2.83;1.50;;;14.70;99.90;;;;;;4069313;28;20164;-68
2022/09/16 03:25:01;;;;;;;5.50;1.48;;;14.70;99.90;;;;;;4062669;29;20040;-68
2022/09/16 03:27:14;;;;;;;3.67;1.20;;;14.70;99.90;;;;;;4070843;28;20032;-68
2022/09/16 03:29:42;;;;;;;6.57;1.88;;;14.70;99.90;;;;;;4070116;29;20520;-68
2022/09/16 03:31:54;;;;;;;7.22;1.40;;;14.60;99.90;;;;;;4064567;28;20050;-67
2022/09/16 03:34:06;;;;;;;5.85;1.50;;;14.70;99.90;;;;;;4066836;28;20036;-68
2022/09/16 03:36:11;;;;;;;1.77;0.82;;;14.60;99.90;;;;;;4060497;28;20032;-68
2022/09/16 03:38:13;;;;;;;2.30;1.20;;;14.70;99.90;;;;;;4059706;28;20043;-67
2022/09/16 03:40:17;;;;;;;3.30;1.30;;;14.60;99.90;;;;;;4061895;28;20036;-68
2022/09/16 03:42:18;;;;;;;4.90;1.50;;;14.60;99.90;;;;;;4062634;29;20062;-67
2022/09/16 03:44:19;;;;;;;4.25;1.30;;;14.70;99.90;;;;;;4062868;28;20029;-68
2022/09/16 03:46:20;;;;;;;2.60;1.27;;;14.70;99.90;;;;;;4063333;28;20132;-68
2022/09/16 03:48:20;;;;;;;3.33;1.33;;;14.60;99.90;;;;;;4060607;28;20451;-67
2022/09/16 03:50:21;;;;;;;3.88;1.02;;;14.70;99.90;;;;;;4060878;28;20664;-68
2022/09/16 03:52:22;;;;;;;4.35;1.10;;;14.70;99.90;;;;;;4062118;28;20517;-67
2022/09/16 03:54:23;;;;;;;3.00;1.55;;;14.70;99.90;;;;;;4066904;28;20044;-68
2022/09/16 03:56:24;;;;;;;2.42;1.00;;;14.70;99.90;;;;;;4064951;28;20039;-68
2022/09/16 03:58:24;;;;;;;6.18;1.60;;;14.60;99.90;;;;;;4064224;28;20040;-67
2022/09/16 04:00:27;;;;;;;5.25;1.67;;;14.50;99.90;;;;;;4059982;28;20052;-67
2022/09/16 04:02:28;;;;;;;;;;;14.50;99.90;;;;;;4058104;29;20040;-68
2022/09/16 04:04:28;;;;;;;3.65;1.55;;;14.50;99.90;;;;;;4065781;28;19919;-68
2022/09/16 04:06:29;;;;;;;4.82;1.60;;;14.50;99.90;;;;;;4064029;28;20032;-68
2022/09/16 04:08:30;;;;;;;4.53;1.55;;;14.40;99.90;;;;;;4061827;28;20032;-68
2022/09/16 04:10:30;;;;;;;2.67;1.20;;;14.40;99.90;;;;;;4067715;28;20047;-68
2022/09/16 04:12:31;;;;;;;2.50;1.20;;;14.40;99.90;;;;;;4065007;28;20032;-68
2022/09/16 04:14:33;;;;;;;6.40;1.20;;;14.40;99.90;;;;;;4063884;28;20047;-67
2022/09/16 04:16:33;;;;;;;2.05;1.00;;;14.40;99.90;;;;;;4061811;28;20417;-68
2022/09/16 04:18:34;;;;;;;2.17;0.93;;;14.40;99.90;;;;;;4071306;28;20487;-68
2022/09/16 04:20:35;;;;;;;3.25;1.05;;;14.40;99.90;;;;;;4065596;28;20115;-67
2022/09/16 04:22:35;;;;;;;2.70;1.23;;;14.40;99.90;;;;;;4066876;29;20049;-67
2022/09/16 04:24:36;;;;;;;3.03;1.08;;;14.40;99.90;;;;;;4064877;29;20602;-68
2022/09/16 04:26:37;;;;;;;2.45;1.00;;;14.40;99.90;;;;;;4066164;28;20039;-68
2022/09/16 04:28:37;;;;;;;4.97;1.27;;;14.40;99.90;;;;;;4070224;28;20042;-68
2022/09/16 04:30:38;;;;;;;1.92;0.95;;;14.40;99.90;;;;;;4063151;28;20036;-68
2022/09/16 04:32:38;;;;;;;1.67;1.00;;;14.40;99.90;;;;;;4064221;28;20048;-67
2022/09/16 04:34:39;;;;;;;5.60;1.38;;;14.50;99.90;;;;;;4068603;28;20113;-68
2022/09/16 04:36:39;;;;;;;4.32;1.50;;;14.40;99.90;;;;;;4062988;29;20031;-68
2022/09/16 04:38:42;;;;;;;6.85;1.63;;;14.40;99.90;;;;;;4064155;29;20120;-68
2022/09/16 04:40:43;;;;;;;;;;;14.30;99.90;;;;;;4062340;29;20144;-68
2022/09/16 04:42:50;;;;;;;4.88;1.63;;;14.30;99.90;;;;;;4066366;28;19930;-67
2022/09/16 04:44:51;;;;;;;4.13;1.50;;;14.40;99.90;;;;;;4076752;28;20035;-67
2022/09/16 04:46:51;;;;;;;3.75;1.42;;;14.30;99.90;;;;;;4073109;28;20042;-68
2022/09/16 04:48:53;;;;;;;5.38;1.73;;;14.30;99.90;;;;;;4073862;28;20052;-67
2022/09/16 04:50:54;;;;;;;4.70;2.00;;;14.30;99.90;;;;;;4070477;28;20381;-68
2022/09/16 04:52:54;;;;;;;5.47;1.80;;;14.30;99.90;;;;;;4071476;28;20108;-68
2022/09/16 04:54:55;;;;;;;3.08;1.70;;;14.30;99.90;;;;;;4070202;28;20171;-68
2022/09/16 04:56:56;;;;;;;3.80;1.52;;;14.30;99.90;;;;;;4071357;28;20045;-68
2022/09/16 04:59:02;;;;;;;5.47;1.83;;;14.30;99.90;;;;;;4077053;29;20071;-68
2022/09/16 05:01:05;;;;;;;5.07;1.70;;;14.30;99.90;;;;;;4072782;28;21626;-68
2022/09/16 05:03:06;;;;;;;3.75;1.80;;;14.30;99.90;;;;;;4070262;28;20052;-68
2022/09/16 05:05:07;;;;;;;5.32;1.88;;;14.30;99.90;;;;;;4075066;28;20550;-68
2022/09/16 05:07:07;;;;;;;7.05;2.03;;;14.30;99.90;;;;;;4069065;28;20040;-69
2022/09/16 05:09:10;;;;;;;3.78;1.88;;;14.30;99.90;;;;;;4077156;28;20032;-69
2022/09/16 05:11:13;;;;;;;7.32;2.28;;;14.20;99.90;;;;;;4066586;28;20115;-69
2022/09/16 05:13:14;;;;;;;3.70;1.90;;;14.20;99.90;;;;;;4070910;28;20027;-68
2022/09/16 05:15:14;;;;;;;4.95;2.03;;;14.20;99.90;;;;;;4075534;28;20091;-68
2022/09/16 05:17:15;;;;;;;3.60;1.73;;;14.20;99.90;;;;;;4075005;28;20068;-69
2022/09/16 05:19:15;;;;;;;5.00;1.70;;;14.20;99.90;;;;;;4068314;29;20040;-70
2022/09/16 05:21:21;;;;;;;4.80;1.55;;;14.20;99.90;;;;;;4071740;28;20047;-69
2022/09/16 05:23:22;;;;;;;3.53;1.67;;;14.30;99.90;;;;;;4069653;28;20040;-69
2022/09/16 05:25:22;;;;;;;7.43;1.60;;;14.30;99.90;;;;;;4070045;28;20044;-69
2022/09/16 05:27:26;;;;;;;4.05;1.60;;;14.30;99.90;;;;;;4064092;28;20044;-69
2022/09/16 05:29:27;;;;;;;2.38;1.50;;;14.30;99.90;;;;;;4068618;28;20051;-69
2022/09/16 05:31:29;;;;;;;5.05;1.92;;;14.30;99.90;;;;;;4068643;29;20043;-70
2022/09/16 05:33:30;;;;;;;4.38;2.00;;;14.30;99.90;;;;;;4068754;28;20047;-68
2022/09/16 05:35:30;;;;;;;4.00;1.92;;;14.30;99.90;;;;;;4070431;28;20044;-70
2022/09/16 05:37:31;;;;;;;8.55;1.85;;;14.20;99.90;;;;;;4072677;28;20040;-69
2022/09/16 05:39:31;;;;;;;4.00;1.48;;;14.20;99.90;;;;;;4063695;28;20040;-70
2022/09/16 05:41:32;;;;;;;3.40;1.80;;;14.20;99.90;;;;;;4071519;28;20054;-69
2022/09/16 05:43:34;;;;;;;7.55;1.70;;;14.20;99.90;;;;;;4072407;28;20048;-69
2022/09/16 05:45:34;;;;;;;3.90;1.50;;;14.20;99.90;;;;;;4071322;28;20050;-70
2022/09/16 05:47:35;;;;;;;3.92;1.58;;;14.20;99.90;;;;;;4077314;28;20028;-70
2022/09/16 05:49:35;;;;;;;3.90;1.52;;;14.20;99.90;;;;;;4071318;28;20031;-70
2022/09/16 05:51:38;;;;;;;4.00;1.63;;;14.10;99.90;;;;;;4070820;28;20032;-70
2022/09/16 05:53:38;;;;;;;8.13;2.15;;;14.10;99.90;;;;;;4067428;28;20036;-69
2022/09/16 05:55:39;;;;;;;9.23;2.40;;;14.00;99.90;;;;;;4068554;28;20123;-69
2022/09/16 05:57:40;;;;;;;4.30;1.70;;;14.10;99.90;;;;;;4070874;28;20495;-69
2022/09/16 05:59:40;;;;;;;5.45;2.05;;;14.10;99.90;;;;;;4072424;28;20035;-71
2022/09/16 06:01:41;;;;;;;2.72;1.50;;;14.10;99.90;;;;;;4070834;28;20491;-71
2022/09/16 06:03:43;;;;;;;4.03;1.48;;;14.10;99.90;;;;;;4071036;28;20036;-72
2022/09/16 06:05:44;;;;;;;4.78;1.88;;;14.10;99.90;;;;;;4057632;28;20048;-67
2022/09/16 06:07:45;;;;;;;5.10;1.58;;;14.10;99.90;;;;;;4068008;28;20094;-71
2022/09/16 06:09:46;;;;;;;7.97;1.80;;;14.10;99.90;;;;;;4063237;29;20496;-71
2022/09/16 06:11:49;;;;;;;3.15;1.60;;;14.10;99.90;;;;;;4061367;29;20087;-70
2022/09/16 06:14:08;;;;;;;2.53;1.33;;;14.10;99.90;;;;;;4062058;28;20499;-71
2022/09/16 06:16:09;;;;;;;3.88;1.88;;;14.10;99.90;;;;;;4065062;28;20111;-72
2022/09/16 06:18:14;;;;;;;6.03;1.90;;;14.10;99.90;;;;;;4071157;28;20072;-72
2022/09/16 06:20:15;;;;;;;3.25;1.52;;;14.20;99.90;;;;;;4067193;28;20072;-71
2022/09/16 06:22:16;;;;;;;3.00;1.80;;;14.20;99.90;;;;;;4059651;28;20112;-71
2022/09/16 06:24:18;;;;;;;3.50;1.67;;;14.20;99.90;;;;;;4056703;28;20400;-71
2022/09/16 06:26:21;;;;;;;2.65;1.20;;;14.30;99.90;;;;;;4057330;28;20488;-71
2022/09/16 06:28:21;;;;;;;6.43;1.85;;;14.30;99.90;;;;;;4059463;28;20115;-72
2022/09/16 06:30:22;;;;;;;2.15;1.70;;;14.40;99.90;;;;;;4060403;28;20065;-72
2022/09/16 06:32:23;;;;;;;5.82;2.00;;;14.40;99.90;;;;;;4059207;28;20027;-72
2022/09/16 06:34:23;;;;;;;3.17;1.70;;;14.50;99.90;;;;;;4058610;28;20119;-72
2022/09/16 06:36:33;;;;;;;2.10;1.33;;;14.50;99.90;;;;;;4060333;28;20116;-72
2022/09/16 06:38:34;;;;;;;5.93;1.58;;;14.50;99.90;;;;;;4058994;28;20047;-70
2022/09/16 06:40:34;;;;;;;3.22;1.60;;;14.50;99.90;;;;;;4058221;29;20873;-71
2022/09/16 06:42:35;;;;;;;3.67;1.55;;;14.60;99.90;;;;;;4058335;28;20036;-70
2022/09/16 06:44:36;;;;;;;4.50;1.80;;;14.60;99.90;;;;;;4058355;29;20123;-71
2022/09/16 06:46:37;;;;;;;2.55;1.25;;;14.60;99.90;;;;;;4058465;28;20415;-72
2022/09/16 06:48:39;;;;;;;4.90;1.45;;;14.60;99.90;;;;;;4052390;29;20055;-71
2022/09/16 06:50:40;;;;;;;3.40;1.40;;;14.70;99.90;;;;;;4055726;29;20131;-72
2022/09/16 06:52:41;;;;;;;3.60;1.60;;;14.70;99.90;;;;;;4056828;28;20143;-71
2022/09/16 06:54:41;;;;;;;4.25;1.90;;;14.70;99.90;;;;;;4058615;29;20048;-70
2022/09/16 06:56:42;;;;;;;3.90;1.67;;;14.70;99.90;;;;;;4054305;28;20072;-71
2022/09/16 06:58:47;;;;;;;2.58;1.40;;;14.70;99.90;;;;;;4059031;29;20032;-71
2022/09/16 07:00:49;;;;;;;3.00;1.20;;;14.80;99.90;;;;;;4054323;28;20041;-71
2022/09/16 07:02:50;;;;;;;2.53;1.40;;;14.80;99.90;;;;;;4058115;28;20037;-71
2022/09/16 07:04:51;;;;;;;2.38;1.30;;;14.80;99.90;;;;;;4060316;29;20044;-71
2022/09/16 07:06:51;;;;;;;1.98;1.23;;;14.90;99.90;;;;;;4059676;28;20051;-71
2022/09/16 07:08:53;;;;;;;3.03;1.38;;;14.90;99.90;;;;;;4057596;29;20051;-72
2022/09/16 07:11:05;;;;;;;4.95;1.83;;;15.00;99.90;;;;;;4057053;28;20571;-72
2022/09/16 07:13:05;;;;;;;3.83;1.50;;;15.10;99.90;;;;;;4058407;28;20036;-72
2022/09/16 07:15:07;;;;;;;2.65;1.30;;;15.30;99.90;;;;;;4057993;29;20050;-72
2022/09/16 07:17:08;;;;;;;4.10;1.77;;;15.40;99.90;;;;;;4057529;28;20064;-72
2022/09/16 07:19:09;;;;;;;2.58;1.10;;;15.50;99.90;;;;;;4056837;28;20040;-73
2022/09/16 07:21:15;;;;;;;4.22;1.58;;;15.50;99.90;;;;;;4055057;29;20048;-71
2022/09/16 07:23:16;;;;;;;3.20;1.25;;;15.60;99.90;;;;;;4057883;29;20071;-72
2022/09/16 07:25:16;;;;;;;4.38;1.35;;;15.70;99.90;;;;;;4056624;29;20043;-73
2022/09/16 07:27:17;;;;;;;2.08;1.02;;;15.90;99.90;;;;;;4055196;29;20092;-72
2022/09/16 07:29:19;;;;;;;4.15;1.42;;;16.10;99.90;;;;;;4057600;29;20064;-71
2022/09/16 07:31:31;;;;;;;3.60;1.40;;;16.30;99.90;;;;;;4055434;29;20044;-73
2022/09/16 07:33:39;;;;;;;5.97;1.60;;;16.50;99.90;;;;;;4057836;29;20491;-72
2022/09/16 07:35:40;;;;;;;8.15;1.52;;;16.60;99.90;;;;;;4058144;29;20481;-74
2022/09/16 07:37:41;;;;;;;5.53;1.35;;;16.70;99.90;;;;;;4057596;29;20074;-74
2022/09/16 07:39:41;;;;;;;2.55;1.00;;;16.80;99.90;;;;;;4060628;28;20108;-75
2022/09/16 07:41:44;;;;;;;2.78;1.35;;;17.00;99.90;;;;;;4054751;28;20104;-73
2022/09/16 07:43:45;;;;;;;4.10;1.30;;;17.10;99.90;;;;;;4057562;29;20048;-71
2022/09/16 07:45:45;;;;;;;2.65;1.25;;;17.40;99.90;;;;;;4051237;29;20063;-72
2022/09/16 07:47:49;;;;;;;2.13;0.90;;;17.50;99.90;;;;;;4056917;29;20048;-72
2022/09/16 07:49:54;;;;;;;5.97;1.35;;;17.80;99.90;;;;;;4058064;28;20095;-70
2022/09/16 07:51:55;;;;;;;2.78;1.15;;;17.90;99.90;;;;;;4056059;29;20325;-71
2022/09/16 07:53:58;;;;;;;6.15;1.25;;;17.90;99.90;;;;;;4055546;29;20036;-71
2022/09/16 07:56:06;;;;;;;4.00;1.10;;;17.90;99.90;;;;;;4055513;29;20115;-72
2022/09/16 07:58:07;;;;;;;3.28;0.90;;;17.90;99.90;;;;;;4059323;28;20084;-73
2022/09/16 08:00:08;;;;;;;2.65;1.30;;;17.90;99.90;;;;;;4056197;29;20031;-72
2022/09/16 08:02:09;;;;;;;1.58;0.90;;;18.00;99.90;;;;;;4056593;29;20492;-70
2022/09/16 08:04:10;;;;;;;3.25;0.90;;;18.00;99.90;;;;;;4054663;28;20060;-72
2022/09/16 08:06:14;;;;;;;5.63;1.17;;;18.00;99.90;;;;;;4057842;29;20036;-73
2022/09/16 08:08:15;;;;;;;5.43;1.00;;;18.10;99.90;;;;;;4055421;28;20119;-72
2022/09/16 08:10:16;;;;;;;5.60;1.52;;;18.20;99.90;;;;;;4054702;29;20079;-71
2022/09/16 08:12:16;;;;;;;4.60;1.33;;;18.40;99.90;;;;;;4057218;28;20542;-73
2022/09/16 08:14:17;;;;;;;1.98;0.88;;;18.30;99.90;;;;;;4056122;28;20047;-73
2022/09/16 08:16:21;;;;;;;1.65;1.00;;;18.50;99.90;;;;;;4055085;28;20033;-72
2022/09/16 08:18:21;;;;;;;4.18;1.10;;;18.40;99.90;;;;;;4060170;28;20040;-73
2022/09/16 08:20:23;;;;;;;2.05;0.80;;;18.40;99.90;;;;;;4055437;28;20043;-72
2022/09/16 08:22:24;;;;;;;1.93;1.00;;;18.40;99.90;;;;;;4056239;29;20044;-74
2022/09/16 08:24:25;;;;;;;2.88;0.80;;;18.50;99.90;;;;;;4056559;28;20067;-75
2022/09/16 08:26:26;;;;;;;3.53;1.20;;;18.70;99.90;;;;;;4057823;28;20044;-70
2022/09/16 08:28:27;;;;;;;2.05;0.75;;;18.70;99.90;;;;;;4063211;28;20032;-74
2022/09/16 08:30:28;;;;;;;1.33;0.73;;;18.80;99.90;;;;;;4055588;28;20787;-74
2022/09/16 08:32:29;;;;;;;2.30;0.80;;;18.80;99.90;;;;;;4054663;28;20036;-75
2022/09/16 08:34:30;;;;;;;1.13;0.60;;;18.90;99.90;;;;;;4056524;28;20037;-73
2022/09/16 08:36:32;;;;;;;2.53;0.70;;;19.10;99.90;;;;;;4054859;28;20041;-72
2022/09/16 08:38:33;;;;;;;0.98;0.65;;;19.10;99.90;;;;;;4059477;28;20032;-73
2022/09/16 08:40:35;;;;;;;3.00;1.05;;;19.10;99.90;;;;;;4052252;29;20045;-73
2022/09/16 08:43:01;;;;;;;2.95;1.00;;;19.10;99.90;;;;;;4054465;28;20396;-73
2022/09/16 08:45:18;;;;;;;1.73;0.80;;;19.20;99.90;;;;;;4049040;28;20032;-74
2022/09/16 08:47:41;;;;;;;5.18;0.68;;;19.30;99.90;;;;;;4054779;28;20496;-74
2022/09/16 08:49:43;;;;;;;;;;;19.30;99.90;;;;;;4060253;28;20043;-74
2022/09/16 08:51:45;;;;;;;3.50;1.00;;;19.40;99.90;;;;;;4057690;28;20516;-75
2022/09/16 08:54:08;;;;;;;2.13;0.60;;;19.40;99.90;;;;;;4055741;28;20050;-71
2022/09/16 08:56:20;;;;;;;4.50;1.02;;;19.40;99.90;;;;;;4057737;28;20291;-75
2022/09/16 08:58:35;;;;;;;2.78;0.90;;;19.40;99.90;;;;;;4053637;28;20551;-72
2022/09/16 09:00:36;;;;;;;3.25;1.10;;;19.50;99.90;;;;;;4056253;28;20048;-74
2022/09/16 09:02:48;;;;;;;3.88;0.68;;;19.60;99.90;;;;;;4058151;29;20086;-71
2022/09/16 09:04:49;;;;;;;4.90;1.42;;;19.60;99.90;;;;;;4055467;28;20072;-73
2022/09/16 09:07:19;;;;;;;4.80;1.05;;;19.60;99.90;;;;;;4053191;29;20119;-74
2022/09/16 09:09:25;;;;;;;5.85;1.33;;;19.60;99.90;;;;;;4058520;28;20040;-73
2022/09/16 09:11:42;;;;;;;1.70;0.52;;;19.60;99.90;;;;;;4056845;29;20500;-73
2022/09/16 09:13:56;;;;;;;4.47;0.95;;;19.70;99.90;;;;;;4058130;28;20032;-75
2022/09/16 09:16:00;;;;;;;4.70;1.13;;;19.80;99.90;;;;;;4056414;28;20036;-72
2022/09/16 09:18:30;;;;;;;2.40;0.70;;;19.80;99.90;;;;;;4057117;29;20391;-72
2022/09/16 09:20:55;;;;;;;3.28;0.90;;;19.80;99.90;;;;;;4061837;28;20639;-73
2022/09/16 09:23:03;;;;;;;3.85;0.98;;;19.90;99.90;;;;;;4056299;29;20044;-73
2022/09/16 09:25:21;;;;;;;3.22;0.93;;;19.90;99.90;;;;;;4061918;29;20029;-75
2022/09/16 09:27:27;;;;;;;2.60;0.90;;;19.90;99.90;;;;;;4059317;28;20103;-73
2022/09/16 09:30:02;;;;;;;2.20;0.90;;;20.00;99.90;;;;;;4061721;29;20040;-75
2022/09/16 09:32:18;;;;;;;3.28;0.80;;;19.90;99.90;;;;;;4057803;29;20040;-74
2022/09/16 09:34:31;;;;;;;2.38;0.77;;;19.90;99.90;;;;;;4061229;28;20043;-72
2022/09/16 09:36:39;;;;;;;2.28;0.85;;;19.80;99.90;;;;;;4060503;28;20106;-72
2022/09/16 09:39:01;;;;;;;4.07;0.85;;;19.80;99.90;;;;;;4056950;28;20075;-73
2022/09/16 09:41:12;;;;;;;2.35;0.60;;;19.70;99.90;;;;;;4058566;29;20491;-73
2022/09/16 09:43:19;;;;;;;3.35;0.80;;;19.50;99.90;;;;;;4058542;28;20055;-72
2022/09/16 09:45:23;;;;;;;1.60;0.50;;;19.40;99.90;;;;;;4056560;29;20070;-73
2022/09/16 09:48:03;;;;;;;2.35;0.70;;;19.30;99.90;;;;;;4060351;28;20048;-73
2022/09/16 09:50:35;;;;;;;3.00;1.05;;;19.30;99.90;;;;;;4058352;29;20040;-74
2022/09/16 09:52:47;;;;;;;4.40;1.13;;;19.10;99.90;;;;;;4060174;28;21989;-74
2022/09/16 09:54:51;;;;;;;2.50;0.40;;;19.00;99.90;;;;;;4060254;29;20040;-74
2022/09/16 09:57:13;;;;;;;4.40;0.90;;;18.90;99.90;;;;;;4057006;29;20048;-74
2022/09/16 09:59:26;;;;;;;3.25;1.00;;;18.80;99.90;;;;;;4059793;29;20060;-74
2022/09/16 10:01:27;;;;;;;4.80;1.00;;;18.90;99.90;;;;;;4060453;29;20028;-74
2022/09/16 10:03:30;;;;;;;1.75;0.70;;;18.90;99.90;;;;;;4060146;28;20124;-72
2022/09/16 10:05:31;;;;;;;4.10;0.95;;;19.00;99.90;;;;;;4060266;29;20051;-72
2022/09/16 10:07:36;;;;;;;4.07;1.02;;;19.00;99.90;;;;;;4058719;29;20119;-71
2022/09/16 10:09:52;;;;;;;3.60;0.80;;;19.10;99.90;;;;;;4059918;29;20119;-71
2022/09/16 10:11:54;;;;;;;3.75;0.93;;;19.30;99.90;;;;;;4060136;28;20039;-70
2022/09/16 10:13:57;;;;;;;5.93;1.27;;;19.30;99.90;;;;;;4059804;29;20044;-71
2022/09/16 10:16:17;;;;;;;2.30;0.80;;;19.30;99.90;;;;;;4056629;29;20033;-71
2022/09/16 10:18:31;;;;;;;5.30;0.95;;;19.30;99.90;;;;;;4058730;28;20056;-70
2022/09/16 10:20:37;;;;;;;4.68;1.08;;;19.20;99.90;;;;;;4060953;28;20040;-71
2022/09/16 10:22:37;;;;;;;2.55;0.73;;;19.10;99.90;;;;;;4058777;28;20096;-70
2022/09/16 10:24:41;;;;;;;2.50;0.60;;;19.00;99.90;;;;;;4059220;28;20041;-71
2022/09/16 10:26:41;;;;;;;3.60;0.70;;;19.00;99.90;;;;;;4058960;29;20133;-70
2022/09/16 10:28:53;;;;;;;4.72;1.50;;;19.00;99.90;;;;;;4061217;28;20109;-71
2022/09/16 10:30:57;;;;;;;4.85;1.05;;;18.80;99.90;;;;;;4056964;29;20395;-70
2022/09/16 10:33:09;;;;;;;4.22;1.00;;;18.70;99.90;;;;;;4038799;29;20128;-70
2022/09/16 10:35:18;;;;;;;2.28;0.80;;;18.40;99.90;;;;;;4055910;28;20434;-71
2022/09/16 10:37:20;;;;;;;5.32;1.00;;;18.20;99.90;;;;;;4062730;28;20137;-70
2022/09/16 10:39:24;;;;;;;6.15;1.25;;;18.20;99.90;;;;;;4059312;28;20439;-71
2022/09/16 10:41:32;;;;;;;2.90;0.80;;;18.10;99.90;;;;;;4058752;29;20047;-71
2022/09/16 10:43:33;;;;;;;3.72;1.00;;;18.20;99.90;;;;;;4056993;28;20032;-69
2022/09/16 10:45:36;;;;;;;3.63;1.25;;;18.20;99.90;;;;;;4058301;28;20059;-71
2022/09/16 10:47:37;;;;;;;3.78;1.00;;;18.20;99.90;;;;;;4057743;29;20055;-71
2022/09/16 10:49:44;;;;;;;5.95;1.10;;;18.30;99.90;;;;;;4058933;29;20044;-71
2022/09/16 10:51:45;;;;;;;3.53;0.80;;;18.30;99.90;;;;;;4055635;28;20032;-70
2022/09/16 10:53:52;;;;;;;3.15;0.90;;;18.30;99.90;;;;;;4057094;29;20533;-71
2022/09/16 10:56:01;;;;;;;4.85;0.80;;;18.30;99.90;;;;;;4056099;29;20044;-71
2022/09/16 10:58:16;;;;;;;5.07;1.25;;;18.20;99.90;;;;;;4057242;28;20092;-70